Time;durP1;ratioP1;P1;durP2;ratioP2;P2;SDS_P1;SDS_P2;PMS_P1;PMS_P2;Temp;Humidity;BMP_temperature;BMP_pressure;BME280_temperature;BME280_humidity;BME280_pressure;Samples;Min_cycle;Max_cycle;Signal;HPM_P1;HPM_P2
2022/12/16 00:02:25;;;;;;;0.80;0.80;;;;;;;-9.02;75.35;100235.25;5084471;28;20028;-69
2022/12/16 00:04:50;;;;;;;0.80;0.80;;;;;;;-9.04;75.39;100234.28;5085577;28;20044;-68
2022/12/16 00:07:15;;;;;;;0.73;0.73;;;;;;;-8.98;75.44;100243.09;5085820;28;20033;-68
2022/12/16 00:09:41;;;;;;;0.80;0.80;;;;;;;-8.99;75.52;100245.50;5084490;28;20024;-68
2022/12/16 00:12:06;;;;;;;0.70;0.70;;;;;;;-9.00;75.67;100237.13;5085830;28;20059;-67
2022/12/16 00:14:31;;;;;;;0.77;0.77;;;;;;;-8.89;75.85;100241.97;5085815;28;20028;-68
2022/12/16 00:16:57;;;;;;;0.80;0.80;;;;;;;-8.77;75.87;100247.84;5085818;28;20025;-68
2022/12/16 00:19:23;;;;;;;0.70;0.70;;;;;;;-8.60;76.07;100255.66;5085851;28;20034;-67
2022/12/16 00:21:48;;;;;;;0.70;0.70;;;;;;;-8.43;76.27;100251.69;5085438;28;20056;-66
2022/12/16 00:24:14;;;;;;;0.75;0.75;;;;;;;-8.32;76.46;100256.56;5085659;28;20025;-68
2022/12/16 00:26:39;;;;;;;0.80;0.80;;;;;;;-8.29;75.91;100259.28;5085235;28;20029;-68
2022/12/16 00:29:05;;;;;;;0.70;0.70;;;;;;;-8.32;75.82;100254.91;5085522;28;20032;-68
2022/12/16 00:31:30;;;;;;;0.70;0.70;;;;;;;-8.35;75.99;100262.28;5085523;28;20024;-69
2022/12/16 00:33:57;;;;;;;0.70;0.70;;;;;;;-8.33;76.01;100258.22;5085817;28;20029;-68
2022/12/16 00:36:22;;;;;;;0.80;0.80;;;;;;;-8.36;75.84;100256.38;5085342;28;20112;-68
2022/12/16 00:38:48;;;;;;;0.80;0.80;;;;;;;-8.44;75.98;100259.16;5085339;28;20033;-68
2022/12/16 00:41:13;;;;;;;0.80;0.80;;;;;;;-8.49;75.80;100259.72;5085520;28;20028;-68
2022/12/16 00:43:39;;;;;;;0.70;0.70;;;;;;;-8.51;75.99;100261.25;5085428;28;20039;-68
2022/12/16 00:46:04;;;;;;;0.70;0.70;;;;;;;-8.50;76.12;100265.50;5085186;28;20031;-68
2022/12/16 00:48:29;;;;;;;0.60;0.60;;;;;;;-8.46;76.07;100270.00;5085675;28;20032;-68
2022/12/16 00:50:55;;;;;;;0.70;0.70;;;;;;;-8.41;76.45;100277.88;5085183;28;20081;-69
2022/12/16 00:53:21;;;;;;;0.77;0.77;;;;;;;-8.39;76.10;100275.44;5085012;28;20039;-68
2022/12/16 00:55:46;;;;;;;0.77;0.77;;;;;;;-8.37;76.15;100289.88;5085266;28;20107;-68
2022/12/16 00:58:12;;;;;;;0.70;0.70;;;;;;;-8.38;76.20;100285.63;5085387;28;20111;-68
2022/12/16 01:00:38;;;;;;;0.80;0.80;;;;;;;-8.36;76.04;100290.75;5085061;28;20036;-68
2022/12/16 01:03:03;;;;;;;0.70;0.70;;;;;;;-8.43;76.20;100278.53;5085273;28;20051;-68
2022/12/16 01:05:29;;;;;;;0.70;0.70;;;;;;;-8.46;76.24;100285.09;5084887;28;20024;-68
2022/12/16 01:07:54;;;;;;;0.70;0.70;;;;;;;-8.40;76.63;100287.16;5084921;28;20481;-68
2022/12/16 01:10:20;;;;;;;0.73;0.73;;;;;;;-8.34;76.88;100292.59;5085242;28;20032;-68
2022/12/16 01:12:46;;;;;;;0.70;0.70;;;;;;;-8.29;76.91;100287.84;5084842;28;20035;-68
2022/12/16 01:15:12;;;;;;;0.80;0.80;;;;;;;-8.24;76.88;100286.53;5083688;28;20060;-68
2022/12/16 01:17:38;;;;;;;0.80;0.80;;;;;;;-8.17;76.98;100297.00;5085076;28;20028;-68
2022/12/16 01:20:04;;;;;;;0.80;0.80;;;;;;;-8.18;76.84;100295.25;5085240;28;20026;-69
2022/12/16 01:22:31;;;;;;;0.65;0.65;;;;;;;-8.17;76.70;100297.88;5084723;28;20053;-69
2022/12/16 01:24:58;;;;;;;0.60;0.60;;;;;;;-8.17;76.88;100289.44;5084990;28;20028;-69
2022/12/16 01:27:23;;;;;;;0.70;0.70;;;;;;;-8.15;76.85;100290.41;5084978;28;20045;-69
2022/12/16 01:29:49;;;;;;;0.70;0.70;;;;;;;-8.04;77.00;100298.66;5084880;28;20056;-68
2022/12/16 01:32:14;;;;;;;0.70;0.70;;;;;;;-7.99;76.80;100302.38;5085041;28;20400;-69
2022/12/16 01:34:41;;;;;;;0.70;0.70;;;;;;;-7.96;76.95;100302.56;5084927;28;20032;-70
2022/12/16 01:37:11;;;;;;;0.80;0.80;;;;;;;-7.97;76.89;100294.13;5084766;28;20035;-68
2022/12/16 01:39:36;;;;;;;0.80;0.80;;;;;;;-7.90;76.69;100304.59;5085014;28;20025;-69
2022/12/16 01:42:02;;;;;;;0.77;0.77;;;;;;;-7.88;76.97;100305.59;5084585;28;20117;-67
2022/12/16 01:44:27;;;;;;;0.65;0.65;;;;;;;-7.86;76.77;100309.09;5084705;28;20519;-67
2022/12/16 01:47:04;;;;;;;0.80;0.80;;;;;;;-7.82;76.84;100300.03;5084579;28;20024;-69
2022/12/16 01:49:37;;;;;;;0.70;0.70;;;;;;;-7.82;76.80;100300.94;5084769;28;20034;-68
2022/12/16 01:52:06;;;;;;;0.68;0.68;;;;;;;-7.85;76.30;100285.63;5084361;28;20020;-67
2022/12/16 01:54:51;;;;;;;0.70;0.70;;;;;;;-7.80;76.36;100299.41;5084778;28;20021;-68
2022/12/16 01:57:21;;;;;;;0.77;0.77;;;;;;;-7.80;76.52;100294.34;5084511;28;20025;-68
2022/12/16 01:59:50;;;;;;;0.80;0.80;;;;;;;-7.80;76.48;100293.47;5084781;28;20528;-68
2022/12/16 02:02:15;;;;;;;0.80;0.80;;;;;;;-7.84;76.23;100294.91;5084498;28;20063;-67
2022/12/16 02:05:19;;;;;;;0.70;0.70;;;;;;;-7.82;76.39;100295.00;5084305;28;20029;-67
2022/12/16 02:07:29;;;;;;;0.80;0.80;;;;;;;-7.81;76.33;100291.72;5084420;28;20185;-68
2022/12/16 02:09:55;;;;;;;0.80;0.80;;;;;;;-7.86;76.12;100283.88;5084362;28;20063;-69
2022/12/16 02:12:40;;;;;;;0.80;0.80;;;;;;;-7.84;76.02;100293.28;5084457;28;20051;-68
2022/12/16 02:15:53;;;;;;;0.80;0.80;;;;;;;-7.94;76.28;100285.03;5084451;28;20046;-67
2022/12/16 02:18:30;;;;;;;0.80;0.80;;;;;;;-7.91;76.25;100292.78;5079340;28;20040;-67
2022/12/16 02:21:13;;;;;;;0.80;0.80;;;;;;;-7.84;76.39;100288.22;5084647;28;20024;-68
2022/12/16 02:24:17;;;;;;;0.75;0.75;;;;;;;-7.53;77.25;100294.34;5084847;28;20052;-67
2022/12/16 02:27:01;;;;;;;0.70;0.70;;;;;;;-7.11;78.20;100293.53;5087881;28;20021;-68
2022/12/16 02:29:32;;;;;;;0.70;0.70;;;;;;;-6.73;78.65;100301.69;5087984;28;20021;-67
2022/12/16 02:32:22;;;;;;;0.90;0.90;;;;;;;-6.43;78.77;100295.81;5087951;28;20089;-68
2022/12/16 02:35:14;;;;;;;0.70;0.70;;;;;;;-6.17;79.44;100299.00;5087728;28;20055;-68
2022/12/16 02:37:48;;;;;;;0.80;0.80;;;;;;;-5.98;79.38;100298.34;5086419;28;20032;-68
2022/12/16 02:40:25;;;;;;;0.70;0.70;;;;;;;-5.97;79.04;100303.50;5087836;28;20046;-68
2022/12/16 02:42:56;;;;;;;0.70;0.70;;;;;;;-6.09;78.73;100302.84;5087592;28;20048;-69
2022/12/16 02:45:26;;;;;;;0.70;0.70;;;;;;;-6.16;78.79;100308.31;5087827;28;20020;-68
2022/12/16 02:47:52;;;;;;;0.75;0.75;;;;;;;-6.27;78.45;100302.63;5087400;28;20084;-69
2022/12/16 02:50:33;;;;;;;0.73;0.73;;;;;;;-6.38;78.09;100315.53;5087745;28;20024;-68
2022/12/16 02:53:00;;;;;;;0.77;0.77;;;;;;;-6.63;77.88;100308.16;5087520;28;20033;-68
2022/12/16 02:55:40;;;;;;;0.63;0.63;;;;;;;-6.75;77.96;100313.31;5086250;28;20032;-69
2022/12/16 02:58:13;;;;;;;0.70;0.70;;;;;;;-6.70;78.43;100316.13;5087644;28;20354;-68
2022/12/16 03:00:55;;;;;;;0.77;0.77;;;;;;;-6.64;78.46;100321.53;5087283;28;20427;-69
2022/12/16 03:03:28;;;;;;;0.70;0.70;;;;;;;-6.68;78.38;100307.00;5087497;28;20024;-67
2022/12/16 03:05:56;;;;;;;0.70;0.70;;;;;;;-6.53;78.65;100319.69;5086866;28;20032;-69
2022/12/16 03:08:28;;;;;;;0.80;0.80;;;;;;;-6.48;79.07;100311.59;5087275;28;20020;-68
2022/12/16 03:10:58;;;;;;;0.80;0.80;;;;;;;-6.53;78.34;100309.59;5087517;28;20036;-69
2022/12/16 03:13:26;;;;;;;0.68;0.68;;;;;;;-6.68;77.90;100312.06;5087020;28;20028;-68
2022/12/16 03:15:53;;;;;;;0.70;0.70;;;;;;;-6.89;77.64;100317.53;5085952;28;20028;-68
2022/12/16 03:18:20;;;;;;;0.70;0.70;;;;;;;-7.10;77.39;100310.41;5087096;28;20028;-69
2022/12/16 03:20:57;;;;;;;0.80;0.80;;;;;;;-7.32;77.25;100313.25;5085611;28;20051;-67
2022/12/16 03:23:56;;;;;;;0.70;0.70;;;;;;;-7.54;77.19;100320.31;5086633;28;20049;-67
2022/12/16 03:26:26;;;;;;;0.68;0.68;;;;;;;-7.72;77.20;100328.50;5084955;28;20115;-68
2022/12/16 03:28:59;;;;;;;0.80;0.80;;;;;;;-7.81;77.53;100314.41;5086837;28;20020;-67
2022/12/16 03:31:56;;;;;;;0.70;0.70;;;;;;;-7.78;77.79;100323.03;5086849;28;20020;-68
2022/12/16 03:34:24;;;;;;;0.65;0.65;;;;;;;-7.84;77.83;100327.69;5086619;28;20032;-67
2022/12/16 03:36:56;;;;;;;0.73;0.73;;;;;;;-7.91;77.78;100318.88;5085761;28;20341;-68
2022/12/16 03:39:22;;;;;;;0.90;0.90;;;;;;;-7.96;78.06;100293.38;5086641;28;20020;-68
2022/12/16 03:41:53;;;;;;;0.80;0.80;;;;;;;-7.82;78.31;100311.00;5086714;28;20420;-66
2022/12/16 03:44:20;;;;;;;0.75;0.75;;;;;;;-7.78;78.12;100310.44;5086562;28;20025;-68
2022/12/16 03:46:46;;;;;;;0.80;0.80;;;;;;;-7.67;78.27;100325.38;5086329;28;20037;-67
2022/12/16 03:49:12;;;;;;;0.70;0.70;;;;;;;-7.61;78.50;100315.69;5086553;28;20028;-69
2022/12/16 03:51:37;;;;;;;0.75;0.75;;;;;;;-7.58;78.21;100320.91;5086339;28;20059;-69
2022/12/16 03:54:02;;;;;;;0.70;0.70;;;;;;;-7.55;78.38;100320.22;5086475;28;20055;-68
2022/12/16 03:56:28;;;;;;;0.70;0.70;;;;;;;-7.44;78.53;100313.38;5086471;28;20039;-69
2022/12/16 03:58:53;;;;;;;0.70;0.70;;;;;;;-7.30;78.55;100317.59;5086341;28;20467;-68
2022/12/16 04:01:18;;;;;;;0.70;0.70;;;;;;;-7.33;78.35;100319.94;5086112;28;20017;-68
2022/12/16 04:03:44;;;;;;;0.70;0.70;;;;;;;-7.39;78.00;100325.47;5086283;28;20025;-68
2022/12/16 04:06:09;;;;;;;0.70;0.70;;;;;;;-7.40;78.07;100322.88;5086024;28;20564;-67
2022/12/16 04:08:34;;;;;;;0.80;0.80;;;;;;;-7.35;78.65;100326.56;5085820;28;20028;-68
2022/12/16 04:25:03;;;;;;;0.70;0.70;;;;;;;-7.02;79.83;100344.56;5085839;28;20170;-68
2022/12/16 04:27:28;;;;;;;0.70;0.70;;;;;;;-6.78;79.91;100344.31;5085714;28;20040;-68
